createdAt,value
2019-06-20T00:00:40.601Z,0.00
2019-06-20T00:01:40.577Z,0.00
2019-06-20T00:02:40.595Z,0.00
2019-06-20T00:03:40.563Z,0.00
2019-06-20T00:04:40.552Z,0.00
2019-06-20T00:05:40.550Z,0.00
2019-06-20T00:06:40.527Z,0.00
2019-06-20T00:07:40.505Z,0.00
2019-06-20T00:08:40.538Z,0.00
2019-06-20T00:09:40.564Z,0.00
2019-06-20T00:10:40.477Z,0.00
2019-06-20T00:11:40.501Z,0.00
2019-06-20T00:12:40.450Z,0.00
2019-06-20T00:13:40.441Z,0.00
2019-06-20T00:14:40.458Z,0.00
2019-06-20T00:15:40.425Z,0.00
2019-06-20T00:16:40.424Z,0.00
2019-06-20T00:17:40.398Z,0.00
2019-06-20T00:18:40.404Z,0.00
2019-06-20T00:19:40.392Z,0.00
2019-06-20T00:20:40.377Z,0.00
2019-06-20T00:21:40.355Z,0.00
2019-06-20T00:22:40.343Z,0.00
2019-06-20T00:23:40.335Z,0.00
2019-06-20T00:24:40.363Z,0.00
2019-06-20T00:25:40.331Z,0.00
2019-06-20T00:26:40.320Z,0.00
2019-06-20T00:27:40.287Z,0.00
2019-06-20T00:28:40.328Z,0.00
2019-06-20T00:29:40.291Z,0.00
2019-06-20T00:30:40.263Z,0.00
2019-06-20T00:31:40.249Z,0.00
2019-06-20T00:32:40.261Z,0.00
2019-06-20T00:33:40.256Z,0.00
2019-06-20T00:34:40.225Z,0.00
2019-06-20T00:35:40.201Z,0.00
2019-06-20T00:36:40.190Z,0.00
2019-06-20T00:37:40.200Z,0.00
2019-06-20T00:38:40.190Z,0.00
2019-06-20T00:39:40.174Z,0.00
2019-06-20T00:40:40.151Z,0.00
2019-06-20T00:41:40.157Z,0.00
2019-06-20T00:42:40.124Z,0.00
2019-06-20T00:43:40.118Z,0.00
2019-06-20T00:44:40.140Z,0.00
2019-06-20T00:45:40.116Z,0.00
2019-06-20T00:46:40.107Z,0.00
2019-06-20T00:47:40.084Z,0.00
2019-06-20T00:48:40.059Z,0.00
2019-06-20T00:49:40.051Z,0.00
2019-06-20T00:50:40.076Z,0.00
2019-06-20T00:51:40.028Z,0.00
2019-06-20T00:52:40.059Z,0.00
2019-06-20T00:53:40.010Z,0.00
2019-06-20T00:54:40.010Z,0.00
2019-06-20T00:55:40.012Z,0.00
2019-06-20T00:56:40.013Z,0.00
2019-06-20T00:57:39.967Z,0.00
2019-06-20T00:58:39.970Z,0.00
2019-06-20T00:59:39.953Z,0.00
2019-06-20T01:00:39.956Z,0.00
2019-06-20T01:01:39.945Z,0.00
2019-06-20T01:02:39.907Z,0.00
2019-06-20T01:03:39.901Z,0.00
2019-06-20T01:04:39.901Z,0.00
2019-06-20T01:05:39.893Z,0.00
2019-06-20T01:06:39.869Z,0.00
2019-06-20T01:07:39.856Z,0.00
2019-06-20T01:08:39.843Z,0.00
2019-06-20T01:09:39.832Z,0.00
2019-06-20T01:10:39.836Z,0.00
2019-06-20T01:11:39.816Z,0.00
2019-06-20T01:12:39.830Z,0.00
2019-06-20T01:13:39.790Z,0.00
2019-06-20T01:14:39.799Z,0.00
2019-06-20T01:15:39.781Z,0.00
2019-06-20T01:16:39.777Z,0.00
2019-06-20T01:17:39.767Z,0.00
2019-06-20T01:18:39.755Z,0.00
2019-06-20T01:19:39.795Z,0.00
2019-06-20T01:20:39.728Z,0.00
2019-06-20T01:21:39.734Z,0.00
2019-06-20T01:22:39.691Z,0.00
2019-06-20T01:23:39.721Z,0.00
2019-06-20T01:24:39.695Z,0.00
2019-06-20T01:25:39.689Z,0.00
2019-06-20T01:26:39.661Z,0.00
2019-06-20T01:27:39.636Z,0.00
2019-06-20T01:28:39.627Z,0.00
2019-06-20T01:29:39.616Z,0.00
2019-06-20T01:30:39.630Z,0.00
2019-06-20T01:31:39.617Z,0.00
2019-06-20T01:32:39.586Z,0.00
2019-06-20T01:33:39.603Z,0.00
2019-06-20T01:34:39.642Z,0.00
2019-06-20T01:35:39.564Z,0.00
2019-06-20T01:36:39.546Z,0.00
2019-06-20T01:37:39.534Z,0.00
2019-06-20T01:38:39.524Z,0.00
2019-06-20T01:39:39.515Z,0.00
2019-06-20T01:40:39.533Z,0.00
2019-06-20T01:41:39.508Z,0.00
2019-06-20T01:42:39.489Z,0.00
2019-06-20T01:43:50.257Z,0.00
2019-06-20T01:44:40.451Z,0.00
2019-06-20T01:45:39.507Z,0.00
2019-06-20T01:46:39.464Z,0.00
2019-06-20T01:47:39.431Z,0.00
2019-06-20T01:48:39.407Z,0.00
2019-06-20T01:49:39.435Z,0.00
2019-06-20T01:50:39.399Z,0.00
2019-06-20T01:51:39.465Z,0.00
2019-06-20T01:52:39.376Z,0.00
2019-06-20T01:53:39.356Z,0.00
2019-06-20T01:54:39.353Z,0.00
2019-06-20T01:55:39.370Z,0.00
2019-06-20T01:56:39.349Z,0.00
2019-06-20T01:57:39.322Z,0.00
2019-06-20T01:58:39.317Z,0.00
2019-06-20T01:59:39.310Z,0.00
2019-06-20T02:00:39.283Z,0.00
2019-06-20T02:01:39.288Z,0.00
2019-06-20T02:02:39.258Z,0.00
2019-06-20T02:03:39.249Z,0.00
2019-06-20T02:04:39.235Z,0.00
2019-06-20T02:05:39.239Z,0.00
2019-06-20T02:06:39.269Z,0.00
2019-06-20T02:07:39.221Z,0.00
2019-06-20T02:08:39.194Z,0.00
2019-06-20T02:09:39.206Z,0.00
2019-06-20T02:10:39.174Z,0.00
2019-06-20T02:11:39.176Z,0.00
2019-06-20T02:12:39.165Z,0.00
2019-06-20T02:13:39.149Z,0.00
2019-06-20T02:14:39.141Z,0.00
2019-06-20T02:15:39.142Z,0.00
2019-06-20T02:16:39.141Z,0.00
2019-06-20T02:17:39.118Z,0.00
2019-06-20T02:18:39.117Z,0.00
2019-06-20T02:19:39.085Z,0.00
2019-06-20T02:20:39.063Z,0.00
2019-06-20T02:21:39.104Z,0.00
2019-06-20T02:22:39.077Z,0.00
2019-06-20T02:23:39.072Z,0.00
2019-06-20T02:24:39.022Z,0.00
2019-06-20T02:25:39.022Z,0.00
2019-06-20T02:26:39.027Z,0.00
2019-06-20T02:27:39.002Z,0.00
2019-06-20T02:28:38.992Z,0.00
2019-06-20T02:29:38.996Z,0.00
2019-06-20T02:30:38.958Z,0.00
2019-06-20T02:31:38.944Z,0.00
2019-06-20T02:32:38.947Z,0.00
2019-06-20T02:33:38.925Z,0.00
2019-06-20T02:34:38.937Z,0.00
2019-06-20T02:35:38.911Z,0.00
2019-06-20T02:36:38.892Z,0.00
2019-06-20T02:37:38.919Z,0.00
2019-06-20T02:38:38.894Z,0.00
2019-06-20T02:39:38.859Z,0.00
2019-06-20T02:40:38.846Z,0.00
2019-06-20T02:41:38.866Z,0.00
2019-06-20T02:42:38.839Z,0.00
2019-06-20T02:43:38.827Z,0.00
2019-06-20T02:44:38.825Z,0.00
2019-06-20T02:45:38.814Z,0.00
2019-06-20T02:46:38.785Z,0.00
2019-06-20T02:47:38.805Z,0.00
2019-06-20T02:48:38.777Z,0.00
2019-06-20T02:49:38.766Z,0.00
2019-06-20T02:50:38.747Z,0.00
2019-06-20T02:51:38.729Z,0.00
2019-06-20T02:52:38.730Z,0.00
2019-06-20T02:53:38.704Z,0.00
2019-06-20T02:54:38.732Z,0.00
2019-06-20T02:55:38.683Z,0.00
2019-06-20T02:56:38.674Z,0.00
2019-06-20T02:57:38.677Z,0.00
2019-06-20T02:58:38.652Z,0.00
2019-06-20T02:59:38.652Z,0.00
2019-06-20T03:00:38.632Z,0.00
2019-06-20T03:01:38.622Z,0.00
2019-06-20T03:02:38.645Z,4.00
2019-06-20T03:03:38.623Z,4.00
2019-06-20T03:04:38.592Z,0.00
2019-06-20T03:05:38.587Z,4.00
2019-06-20T03:06:38.581Z,4.00
2019-06-20T03:07:38.580Z,8.00
2019-06-20T03:08:38.544Z,8.00
2019-06-20T03:09:38.535Z,4.00
2019-06-20T03:10:38.524Z,8.00
2019-06-20T03:11:38.513Z,8.00
2019-06-20T03:12:38.540Z,12.00
2019-06-20T03:13:38.487Z,8.00
2019-06-20T03:14:45.576Z,8.00
2019-06-20T03:15:39.465Z,12.00
2019-06-20T03:16:38.493Z,12.00
2019-06-20T03:17:38.465Z,12.00
2019-06-20T03:18:38.455Z,12.00
2019-06-20T03:19:38.426Z,8.00
2019-06-20T03:20:38.414Z,12.00
2019-06-20T03:21:38.403Z,12.00
2019-06-20T03:22:38.457Z,12.00
2019-06-20T03:23:38.382Z,16.00
2019-06-20T03:24:38.380Z,16.00
2019-06-20T03:25:38.371Z,16.00
2019-06-20T03:26:38.350Z,16.00
2019-06-20T03:27:38.337Z,16.00
2019-06-20T03:28:38.340Z,12.00
2019-06-20T03:29:38.342Z,16.00
2019-06-20T03:30:38.332Z,16.00
2019-06-20T03:31:38.294Z,16.00
2019-06-20T03:32:38.311Z,16.00
2019-06-20T03:33:38.313Z,20.00
2019-06-20T03:34:38.263Z,20.00
2019-06-20T03:35:38.260Z,24.00
2019-06-20T03:36:38.240Z,24.00
2019-06-20T03:37:38.243Z,28.00
2019-06-20T03:38:38.256Z,32.00
2019-06-20T03:39:38.244Z,40.00
2019-06-20T03:40:38.197Z,44.00
2019-06-20T03:41:38.222Z,52.00
2019-06-20T03:42:38.185Z,56.00
2019-06-20T03:43:38.194Z,60.00
2019-06-20T03:44:38.155Z,60.00
2019-06-20T03:45:38.142Z,68.00
2019-06-20T03:46:38.143Z,68.00
2019-06-20T03:47:38.141Z,72.00
2019-06-20T03:48:38.123Z,72.00
2019-06-20T03:49:38.111Z,68.00
2019-06-20T03:50:38.086Z,68.00
2019-06-20T03:51:38.102Z,72.00
2019-06-20T03:52:38.069Z,72.00
2019-06-20T03:53:38.071Z,68.00
2019-06-20T03:54:38.044Z,64.00
2019-06-20T03:55:38.048Z,68.00
2019-06-20T03:56:38.040Z,68.00
2019-06-20T03:57:38.036Z,68.00
2019-06-20T03:58:38.031Z,76.00
2019-06-20T03:59:37.997Z,76.00
2019-06-20T04:00:37.980Z,76.00
2019-06-20T04:01:37.994Z,76.00
2019-06-20T04:02:37.986Z,76.00
2019-06-20T04:03:37.991Z,80.00
2019-06-20T04:04:37.935Z,84.00
2019-06-20T04:05:37.949Z,92.00
2019-06-20T04:06:37.961Z,104.00
2019-06-20T04:07:37.901Z,120.00
2019-06-20T04:08:37.907Z,136.00
2019-06-20T04:09:37.922Z,152.00
2019-06-20T04:10:37.884Z,164.00
2019-06-20T04:11:37.877Z,176.00
2019-06-20T04:12:37.856Z,188.00
2019-06-20T04:13:37.850Z,208.00
2019-06-20T04:14:37.825Z,236.00
2019-06-20T04:15:37.855Z,276.00
2019-06-20T04:16:37.804Z,320.00
2019-06-20T04:17:37.804Z,352.00
2019-06-20T04:18:37.811Z,372.00
2019-06-20T04:19:37.772Z,392.00
2019-06-20T04:20:37.762Z,420.00
2019-06-20T04:21:37.766Z,448.00
2019-06-20T04:22:37.739Z,476.00
2019-06-20T04:23:37.783Z,504.00
2019-06-20T04:24:37.717Z,528.00
2019-06-20T04:25:37.710Z,512.00
2019-06-20T04:26:37.698Z,484.00
2019-06-20T04:27:37.684Z,464.00
2019-06-20T04:28:37.690Z,444.00
2019-06-20T04:29:37.684Z,424.00
2019-06-20T04:30:37.666Z,408.00
2019-06-20T04:31:37.643Z,412.00
2019-06-20T04:32:37.635Z,420.00
2019-06-20T04:33:37.632Z,440.00
2019-06-20T04:34:37.607Z,448.00
2019-06-20T04:35:37.640Z,444.00
2019-06-20T04:36:37.587Z,432.00
2019-06-20T04:37:37.578Z,432.00
2019-06-20T04:38:37.581Z,436.00
2019-06-20T04:39:37.557Z,444.00
2019-06-20T04:40:37.543Z,452.00
2019-06-20T04:41:37.534Z,452.00
2019-06-20T04:42:37.522Z,452.00
2019-06-20T04:43:37.524Z,444.00
2019-06-20T04:44:37.515Z,444.00
2019-06-20T04:45:37.496Z,448.00
2019-06-20T04:46:37.500Z,444.00
2019-06-20T04:47:37.467Z,440.00
2019-06-20T04:48:37.457Z,432.00
2019-06-20T04:49:37.471Z,432.00
2019-06-20T04:50:37.456Z,432.00
2019-06-20T04:51:37.439Z,428.00
2019-06-20T04:52:37.438Z,416.00
2019-06-20T04:53:37.403Z,396.00
2019-06-20T04:54:37.429Z,376.00
2019-06-20T04:55:37.382Z,360.00
2019-06-20T04:56:37.375Z,336.00
2019-06-20T04:57:37.373Z,324.00
2019-06-20T04:58:37.375Z,324.00
2019-06-20T04:59:37.355Z,324.00
2019-06-20T05:00:37.344Z,320.00
2019-06-20T05:01:37.317Z,320.00
2019-06-20T05:02:37.316Z,316.00
2019-06-20T05:03:37.313Z,296.00
2019-06-20T05:04:37.303Z,292.00
2019-06-20T05:05:37.290Z,280.00
2019-06-20T05:06:37.287Z,264.00
2019-06-20T05:07:37.269Z,248.00
2019-06-20T05:08:37.243Z,228.00
2019-06-20T05:09:37.262Z,216.00
2019-06-20T05:10:37.220Z,216.00
2019-06-20T05:11:37.208Z,228.00
2019-06-20T05:12:37.233Z,252.00
2019-06-20T05:13:37.200Z,284.00
2019-06-20T05:14:37.190Z,336.00
2019-06-20T05:15:51.658Z,400.00
2019-06-20T05:16:38.152Z,464.00
2019-06-20T05:17:37.173Z,520.00
2019-06-20T05:18:37.132Z,580.00
2019-06-20T05:19:37.168Z,608.00
2019-06-20T05:20:37.382Z,608.00
2019-06-20T05:21:37.103Z,648.00
2019-06-20T05:22:37.092Z,724.00
2019-06-20T05:23:37.078Z,780.00
2019-06-20T05:24:37.095Z,804.00
2019-06-20T05:25:37.056Z,820.00
2019-06-20T05:26:37.047Z,824.00
2019-06-20T05:27:37.037Z,816.00
2019-06-20T05:28:37.037Z,808.00
2019-06-20T05:29:37.074Z,820.00
2019-06-20T05:30:37.019Z,892.00
2019-06-20T05:31:36.990Z,972.00
2019-06-20T05:32:36.995Z,992.00
2019-06-20T05:33:36.968Z,972.00
2019-06-20T05:34:36.978Z,916.00
2019-06-20T05:35:36.977Z,884.00
2019-06-20T05:36:36.957Z,860.00
2019-06-20T05:37:36.947Z,844.00
2019-06-20T05:38:36.915Z,828.00
2019-06-20T05:39:36.959Z,820.00
2019-06-20T05:40:37.321Z,856.00
2019-06-20T05:41:36.913Z,864.00
2019-06-20T05:42:36.888Z,884.00
2019-06-20T05:43:36.878Z,936.00
2019-06-20T05:44:36.879Z,952.00
2019-06-20T05:45:36.887Z,940.00
2019-06-20T05:46:36.865Z,944.00
2019-06-20T05:47:36.836Z,908.00
2019-06-20T05:48:36.807Z,832.00
2019-06-20T05:49:37.104Z,780.00
2019-06-20T05:50:36.785Z,760.00
2019-06-20T05:51:39.714Z,776.00
2019-06-20T05:52:36.775Z,856.00
2019-06-20T05:53:36.754Z,920.00
2019-06-20T05:54:36.788Z,928.00
2019-06-20T05:55:36.735Z,908.00
2019-06-20T05:56:36.721Z,876.00
2019-06-20T05:57:36.733Z,852.00
2019-06-20T05:58:36.729Z,828.00
2019-06-20T05:59:36.724Z,820.00
2019-06-20T06:00:36.695Z,816.00
2019-06-20T06:01:36.736Z,792.00
2019-06-20T06:02:36.666Z,756.00
2019-06-20T06:03:36.658Z,712.00
2019-06-20T06:04:36.674Z,668.00
2019-06-20T06:05:37.155Z,636.00
2019-06-20T06:06:36.642Z,608.00
2019-06-20T06:07:36.602Z,608.00
2019-06-20T06:08:36.609Z,636.00
2019-06-20T06:09:36.603Z,680.00
2019-06-20T06:10:36.583Z,712.00
2019-06-20T06:11:36.556Z,708.00
2019-06-20T06:12:36.571Z,744.00
2019-06-20T06:13:36.536Z,808.00
2019-06-20T06:14:36.529Z,856.00
2019-06-20T06:15:36.527Z,932.00
2019-06-20T06:16:36.510Z,1068.00
2019-06-20T06:17:36.527Z,1220.00
2019-06-20T06:18:36.482Z,1316.00
2019-06-20T06:19:36.472Z,1328.00
2019-06-20T06:20:36.481Z,1312.00
2019-06-20T06:21:36.449Z,1264.00
2019-06-20T06:22:36.494Z,1224.00
2019-06-20T06:23:36.445Z,1168.00
2019-06-20T06:24:36.431Z,1064.00
2019-06-20T06:25:36.439Z,936.00
2019-06-20T06:26:36.396Z,844.00
2019-06-20T06:27:36.387Z,804.00
2019-06-20T06:28:36.376Z,776.00
2019-06-20T06:29:36.361Z,724.00
2019-06-20T06:30:36.365Z,684.00
2019-06-20T06:31:36.362Z,688.00
2019-06-20T06:32:39.899Z,720.00
2019-06-20T06:33:36.320Z,784.00
2019-06-20T06:34:36.307Z,852.00
2019-06-20T06:35:36.313Z,900.00
2019-06-20T06:36:36.286Z,944.00
2019-06-20T06:37:36.386Z,992.00
2019-06-20T06:38:36.264Z,1052.00
2019-06-20T06:39:36.254Z,1112.00
2019-06-20T06:40:36.259Z,1132.00
2019-06-20T06:41:36.239Z,1132.00
2019-06-20T06:42:36.221Z,1168.00
2019-06-20T06:43:41.733Z,1188.00
2019-06-20T06:44:37.202Z,1228.00
2019-06-20T06:45:36.206Z,1212.00
2019-06-20T06:46:45.876Z,1208.00
2019-06-20T06:47:37.165Z,1252.00
2019-06-20T06:48:36.156Z,1216.00
2019-06-20T06:49:36.153Z,1196.00
2019-06-20T06:50:36.183Z,1160.00
2019-06-20T06:51:38.162Z,1172.00
2019-06-20T06:52:36.112Z,1176.00
2019-06-20T06:53:36.101Z,1176.00
2019-06-20T06:54:36.090Z,1196.00
2019-06-20T06:55:36.106Z,1216.00
2019-06-20T06:56:36.110Z,1224.00
2019-06-20T06:57:36.060Z,1236.00
2019-06-20T06:58:36.047Z,1212.00
2019-06-20T06:59:36.036Z,1180.00
2019-06-20T07:00:36.040Z,1072.00
2019-06-20T07:01:36.013Z,948.00
2019-06-20T07:02:36.036Z,868.00
2019-06-20T07:03:36.000Z,876.00
2019-06-20T07:04:35.983Z,880.00
2019-06-20T07:05:35.983Z,868.00
2019-06-20T07:06:35.960Z,872.00
2019-06-20T07:07:35.951Z,868.00
2019-06-20T07:08:35.967Z,864.00
2019-06-20T07:09:35.927Z,856.00
2019-06-20T07:10:35.931Z,840.00
2019-06-20T07:11:35.906Z,860.00
2019-06-20T07:12:35.894Z,856.00
2019-06-20T07:13:35.882Z,888.00
2019-06-20T07:14:35.937Z,900.00
2019-06-20T07:15:35.899Z,912.00
2019-06-20T07:16:35.871Z,924.00
2019-06-20T07:17:35.843Z,948.00
2019-06-20T07:18:35.829Z,968.00
2019-06-20T07:19:35.821Z,980.00
2019-06-20T07:20:35.811Z,996.00
2019-06-20T07:21:35.810Z,1008.00
2019-06-20T07:22:35.839Z,1032.00
2019-06-20T07:23:35.775Z,1076.00
2019-06-20T07:24:35.821Z,1144.00
2019-06-20T07:25:35.756Z,1160.00
2019-06-20T07:26:35.758Z,1128.00
2019-06-20T07:27:35.731Z,1036.00
2019-06-20T07:28:35.720Z,1004.00
2019-06-20T07:29:35.746Z,1008.00
2019-06-20T07:30:35.699Z,1048.00
2019-06-20T07:31:35.725Z,1116.00
2019-06-20T07:32:35.677Z,1144.00
2019-06-20T07:33:35.666Z,1152.00
2019-06-20T07:34:35.671Z,1164.00
2019-06-20T07:35:35.663Z,1148.00
2019-06-20T07:36:35.651Z,1116.00
2019-06-20T07:37:35.622Z,1136.00
2019-06-20T07:38:35.626Z,1160.00
2019-06-20T07:39:35.600Z,1184.00
2019-06-20T07:40:35.589Z,1212.00
2019-06-20T07:41:35.616Z,1252.00
2019-06-20T07:42:35.637Z,1316.00
2019-06-20T07:43:35.555Z,1508.00
2019-06-20T07:44:35.546Z,1804.00
2019-06-20T07:45:35.538Z,2052.00
2019-06-20T07:46:35.538Z,2140.00
2019-06-20T07:47:35.536Z,2112.00
2019-06-20T07:48:35.501Z,2108.00
2019-06-20T07:49:35.489Z,2152.00
2019-06-20T07:50:39.256Z,2208.00
2019-06-20T07:51:35.481Z,2280.00
2019-06-20T07:52:35.457Z,2436.00
2019-06-20T07:53:35.466Z,2496.00
2019-06-20T07:54:35.474Z,2516.00
2019-06-20T07:55:35.442Z,2504.00
2019-06-20T07:56:35.430Z,2520.00
2019-06-20T07:57:35.406Z,2432.00
2019-06-20T07:58:35.392Z,2336.00
2019-06-20T07:59:35.380Z,2268.00
2019-06-20T08:00:35.392Z,2288.00
2019-06-20T08:01:35.389Z,2396.00
2019-06-20T08:02:35.424Z,2608.00
2019-06-20T08:03:35.409Z,2668.00
2019-06-20T08:04:35.382Z,2704.00
2019-06-20T08:05:35.365Z,2636.00
2019-06-20T08:06:35.797Z,2584.00
2019-06-20T08:07:35.311Z,2588.00
2019-06-20T08:08:35.315Z,2684.00
2019-06-20T08:09:44.956Z,2744.00
2019-06-20T08:10:36.284Z,2824.00
2019-06-20T08:11:35.394Z,2904.00
2019-06-20T08:12:35.270Z,2944.00
2019-06-20T08:13:35.233Z,2968.00
2019-06-20T08:14:35.234Z,2972.00
2019-06-20T08:15:35.258Z,2984.00
2019-06-20T08:16:35.270Z,2992.00
2019-06-20T08:17:35.892Z,2992.00
2019-06-20T08:18:35.174Z,3008.00
2019-06-20T08:19:35.196Z,2996.00
2019-06-20T08:20:35.153Z,2964.00
2019-06-20T08:21:35.170Z,2980.00
2019-06-20T08:22:35.158Z,2972.00
2019-06-20T08:23:35.153Z,2964.00
2019-06-20T08:24:35.109Z,2972.00
2019-06-20T08:25:35.098Z,2968.00
2019-06-20T08:26:35.088Z,2972.00
2019-06-20T08:27:35.093Z,2968.00
2019-06-20T08:28:35.098Z,2980.00
2019-06-20T08:29:35.057Z,3052.00
2019-06-20T08:30:35.054Z,3124.00
2019-06-20T08:31:35.034Z,3264.00
2019-06-20T08:32:35.044Z,3428.00
2019-06-20T08:33:35.012Z,3480.00
2019-06-20T08:34:35.025Z,3356.00
2019-06-20T08:35:35.040Z,3172.00
2019-06-20T08:36:34.979Z,2940.00
2019-06-20T08:37:34.983Z,2768.00
2019-06-20T08:38:34.959Z,2648.00
2019-06-20T08:39:34.947Z,2504.00
2019-06-20T08:40:34.978Z,2400.00
2019-06-20T08:41:34.927Z,2264.00
2019-06-20T08:42:34.928Z,2148.00
2019-06-20T08:43:34.905Z,1996.00
2019-06-20T08:44:34.910Z,1848.00
2019-06-20T08:45:35.036Z,1728.00
2019-06-20T08:46:34.891Z,1624.00
2019-06-20T08:47:34.875Z,1548.00
2019-06-20T08:48:34.854Z,1500.00
2019-06-20T08:49:34.839Z,1472.00
2019-06-20T08:50:34.835Z,1480.00
2019-06-20T08:51:34.816Z,1520.00
2019-06-20T08:52:34.837Z,1588.00
2019-06-20T08:53:34.829Z,1668.00
2019-06-20T08:54:34.785Z,1776.00
2019-06-20T08:55:34.774Z,1924.00
2019-06-20T08:56:34.762Z,2076.00
2019-06-20T08:57:34.769Z,2208.00
2019-06-20T08:58:34.745Z,2304.00
2019-06-20T08:59:34.743Z,2392.00
2019-06-20T09:00:34.749Z,2468.00
2019-06-20T09:01:34.730Z,2520.00
2019-06-20T09:02:34.719Z,2520.00
2019-06-20T09:03:34.722Z,2460.00
2019-06-20T09:04:34.678Z,2380.00
2019-06-20T09:05:34.685Z,2424.00
2019-06-20T09:06:34.669Z,2524.00
2019-06-20T09:07:34.684Z,2376.00
2019-06-20T09:08:34.661Z,2188.00
2019-06-20T09:09:34.674Z,2004.00
2019-06-20T09:10:34.638Z,1856.00
2019-06-20T09:11:34.654Z,1740.00
2019-06-20T09:12:34.640Z,1760.00
2019-06-20T09:13:34.578Z,1868.00
2019-06-20T09:14:34.571Z,2044.00
2019-06-20T09:15:34.596Z,2300.00
2019-06-20T09:16:34.546Z,2524.00
2019-06-20T09:17:34.555Z,2772.00
2019-06-20T09:18:34.524Z,3000.00
2019-06-20T09:19:34.514Z,3100.00
2019-06-20T09:20:34.529Z,3096.00
2019-06-20T09:21:34.493Z,3036.00
2019-06-20T09:22:34.497Z,3012.00
2019-06-20T09:23:35.728Z,2984.00
2019-06-20T09:24:34.460Z,3104.00
2019-06-20T09:25:34.465Z,3252.00
2019-06-20T09:26:34.464Z,3324.00
2019-06-20T09:27:34.443Z,3312.00
2019-06-20T09:28:34.417Z,3240.00
2019-06-20T09:29:41.811Z,3260.00
2019-06-20T09:30:35.395Z,3412.00
2019-06-20T09:31:34.384Z,3652.00
2019-06-20T09:32:34.391Z,3872.00
2019-06-20T09:33:34.398Z,4104.00
2019-06-20T09:34:34.354Z,4152.00
2019-06-20T09:35:34.344Z,4052.00
2019-06-20T09:36:34.355Z,3860.00
2019-06-20T09:37:34.335Z,3720.00
2019-06-20T09:38:34.310Z,3512.00
2019-06-20T09:39:34.321Z,3260.00
2019-06-20T09:40:34.285Z,3136.00
2019-06-20T09:41:34.278Z,3116.00
2019-06-20T09:42:36.832Z,3048.00
2019-06-20T09:43:34.256Z,3012.00
2019-06-20T09:44:34.245Z,3040.00
2019-06-20T09:45:34.259Z,3356.00
2019-06-20T09:46:34.222Z,3516.00
2019-06-20T09:47:34.229Z,3592.00
2019-06-20T09:48:34.199Z,3828.00
2019-06-20T09:49:34.190Z,3760.00
2019-06-20T09:50:34.199Z,3560.00
2019-06-20T09:51:34.175Z,3504.00
2019-06-20T09:52:34.222Z,3576.00
2019-06-20T09:53:34.199Z,3444.00
2019-06-20T09:54:34.135Z,3392.00
2019-06-20T09:55:34.149Z,3500.00
2019-06-20T09:56:34.116Z,3492.00
2019-06-20T09:57:34.105Z,3804.00
2019-06-20T09:58:34.130Z,3836.00
2019-06-20T09:59:34.080Z,4084.00
2019-06-20T10:00:34.071Z,4088.00
2019-06-20T10:01:34.059Z,4120.00
2019-06-20T10:02:34.051Z,3996.00
2019-06-20T10:03:34.086Z,3860.00
2019-06-20T10:04:34.030Z,3604.00
2019-06-20T10:05:34.017Z,3752.00
2019-06-20T10:06:34.009Z,3712.00
2019-06-20T10:07:34.011Z,3472.00
2019-06-20T10:08:34.012Z,3120.00
2019-06-20T10:09:33.989Z,2868.00
2019-06-20T10:10:33.964Z,2864.00
2019-06-20T10:11:33.952Z,2612.00
2019-06-20T10:12:33.943Z,2456.00
2019-06-20T10:13:33.943Z,2520.00
2019-06-20T10:14:33.920Z,2740.00
2019-06-20T10:15:33.940Z,2596.00
2019-06-20T10:16:45.224Z,2548.00
2019-06-20T10:17:34.887Z,2596.00
2019-06-20T10:18:33.890Z,2620.00
2019-06-20T10:19:33.865Z,2812.00
2019-06-20T10:20:33.853Z,3324.00
2019-06-20T10:21:33.873Z,3880.00
2019-06-20T10:22:33.835Z,3976.00
2019-06-20T10:23:33.840Z,3832.00
2019-06-20T10:24:33.812Z,3892.00
2019-06-20T10:25:33.801Z,3804.00
2019-06-20T10:26:37.389Z,3760.00
2019-06-20T10:27:33.796Z,3672.00
2019-06-20T10:28:33.782Z,3652.00
2019-06-20T10:29:33.757Z,3524.00
2019-06-20T10:30:33.745Z,3496.00
2019-06-20T10:31:33.737Z,3632.00
2019-06-20T10:32:33.730Z,3756.00
2019-06-20T10:33:33.753Z,3832.00
2019-06-20T10:34:33.704Z,3932.00
2019-06-20T10:35:33.701Z,3704.00
2019-06-20T10:36:33.683Z,3656.00
2019-06-20T10:37:33.686Z,3832.00
2019-06-20T10:38:33.676Z,3900.00
2019-06-20T10:39:33.667Z,4216.00
2019-06-20T10:40:33.638Z,4416.00
2019-06-20T10:41:33.627Z,4520.00
2019-06-20T10:42:33.618Z,4648.00
2019-06-20T10:43:33.622Z,4784.00
2019-06-20T10:44:33.596Z,4804.00
2019-06-20T10:45:33.603Z,4644.00
2019-06-20T10:46:33.589Z,4708.00
2019-06-20T10:47:36.070Z,4800.00
2019-06-20T10:48:33.605Z,4808.00
2019-06-20T10:49:33.579Z,4964.00
2019-06-20T10:50:33.545Z,5236.00
2019-06-20T10:51:33.527Z,5388.00
2019-06-20T10:52:33.522Z,5368.00
2019-06-20T10:53:33.513Z,5300.00
2019-06-20T10:54:33.506Z,5136.00
2019-06-20T10:55:33.481Z,4752.00
2019-06-20T10:56:33.485Z,4588.00
2019-06-20T10:57:33.454Z,4656.00
2019-06-20T10:58:33.459Z,4760.00
2019-06-20T10:59:33.437Z,4824.00
2019-06-20T11:00:33.424Z,4740.00
2019-06-20T11:01:33.447Z,4700.00
2019-06-20T11:02:33.439Z,4560.00
2019-06-20T11:03:33.407Z,4020.00
2019-06-20T11:04:33.379Z,3448.00
2019-06-20T11:05:33.371Z,3076.00
2019-06-20T11:06:33.377Z,2760.00
2019-06-20T11:07:33.348Z,2488.00
2019-06-20T11:08:33.375Z,2468.00
2019-06-20T11:09:33.329Z,2608.00
2019-06-20T11:10:33.318Z,2572.00
2019-06-20T11:11:33.307Z,2276.00
2019-06-20T11:12:42.885Z,2060.00
2019-06-20T11:13:34.317Z,1904.00
2019-06-20T11:14:33.274Z,1540.00
2019-06-20T11:15:33.288Z,1232.00
2019-06-20T11:16:33.254Z,1056.00
2019-06-20T11:17:33.246Z,972.00
2019-06-20T11:18:33.251Z,932.00
2019-06-20T11:19:33.229Z,940.00
2019-06-20T11:20:33.232Z,960.00
2019-06-20T11:21:33.199Z,972.00
2019-06-20T11:22:33.222Z,972.00
2019-06-20T11:23:33.210Z,980.00
2019-06-20T11:24:33.168Z,976.00
2019-06-20T11:25:33.155Z,964.00
2019-06-20T11:26:33.191Z,948.00
2019-06-20T11:27:33.144Z,944.00
2019-06-20T11:28:33.125Z,928.00
2019-06-20T11:29:33.139Z,908.00
2019-06-20T11:30:47.973Z,884.00
2019-06-20T11:31:34.089Z,872.00
2019-06-20T11:32:33.093Z,832.00
2019-06-20T11:33:36.553Z,800.00
2019-06-20T11:34:33.076Z,796.00
2019-06-20T11:35:33.143Z,812.00
2019-06-20T11:36:33.036Z,816.00
2019-06-20T11:37:33.070Z,820.00
2019-06-20T11:38:33.060Z,824.00
2019-06-20T11:39:37.455Z,816.00
2019-06-20T11:40:33.696Z,800.00
2019-06-20T11:41:32.985Z,772.00
2019-06-20T11:42:33.003Z,744.00
2019-06-20T11:43:34.620Z,720.00
2019-06-20T11:44:35.373Z,720.00
2019-06-20T11:45:35.482Z,728.00
2019-06-20T11:46:35.333Z,756.00
2019-06-20T11:47:34.947Z,784.00
2019-06-20T11:48:34.226Z,816.00
2019-06-20T11:49:34.577Z,836.00
2019-06-20T11:50:34.458Z,852.00
2019-06-20T11:51:34.296Z,864.00
2019-06-20T11:52:36.883Z,876.00
2019-06-20T11:53:35.289Z,884.00
2019-06-20T11:54:34.349Z,888.00
2019-06-20T11:55:32.862Z,892.00
2019-06-20T11:56:32.835Z,888.00
2019-06-20T11:57:32.809Z,880.00
2019-06-20T11:58:32.799Z,892.00
2019-06-20T11:59:32.803Z,924.00
2019-06-20T12:00:32.778Z,968.00
2019-06-20T12:01:33.349Z,1020.00
2019-06-20T12:02:32.763Z,1072.00
2019-06-20T12:03:32.743Z,1120.00
2019-06-20T12:04:32.750Z,1156.00
2019-06-20T12:05:32.781Z,1184.00
2019-06-20T12:06:38.458Z,1192.00
2019-06-20T12:07:32.703Z,1168.00
2019-06-20T12:08:32.690Z,1128.00
2019-06-20T12:09:36.459Z,1076.00
2019-06-20T12:10:33.662Z,1028.00
2019-06-20T12:11:32.812Z,996.00
2019-06-20T12:12:32.689Z,980.00
2019-06-20T12:13:33.182Z,980.00
2019-06-20T12:14:33.605Z,996.00
2019-06-20T12:15:32.615Z,1028.00
2019-06-20T12:16:33.745Z,1064.00
2019-06-20T12:17:32.933Z,1084.00
2019-06-20T12:18:34.074Z,1080.00
2019-06-20T12:19:32.603Z,1048.00
2019-06-20T12:20:32.591Z,996.00
2019-06-20T12:21:32.549Z,936.00
2019-06-20T12:22:32.685Z,884.00
2019-06-20T12:23:32.532Z,840.00
2019-06-20T12:24:32.517Z,808.00
2019-06-20T12:25:32.578Z,776.00
2019-06-20T12:26:32.593Z,756.00
2019-06-20T12:27:32.543Z,752.00
2019-06-20T12:28:32.475Z,740.00
2019-06-20T12:29:32.472Z,732.00
2019-06-20T12:30:32.467Z,716.00
2019-06-20T12:31:32.441Z,700.00
2019-06-20T12:32:32.435Z,676.00
2019-06-20T12:33:32.419Z,648.00